CA-0360 weather

CLOSED Chucker Farm Airport
Ste-Marthe, Quebec, Canada

Public forecast

Using degrees Celsius for public forecast. Weather courtesy of forecast.io.

METAR (pilot weather report)

Closest report is Montreal International (Mirabel) Airport, 17.2 nm (31.9 km) NNE. Retrieved 2019/05/21 16:00 UTC (32 minutes ago):

CYMX 211600Z 30007G22KT 240V340 45SM -SHRA BKN040 BKN060 12/03 A2985 RMK CU5SC2 SLP110

TAF (pilot weather forecast)

Closest forecast is Montreal International (Mirabel) Airport, 17.2 nm (31.9 km) NNE. Retrieved 2019/05/21 12:42 UTC (4 hours ago):

TAF TAF CYMX 211138Z 2112/2212 27008G18KT P6SM SCT020 TEMPO 2112/2115 BKN020 BECMG 2112/2113 29015G25KT FM211500 30015G28KT P6SM BKN030 FM211800 31015G30KT P6SM BKN050 BECMG 2122/2124 33008KT FM220300 33005KT P6SM SCT060 FM220800 VRB03KT P6SM SKC RMK NXT FCST BY 211800Z